sensor_id;sensor_type;location;lat;lon;timestamp;P1;durP1;ratioP1;P2;durP2;ratioP2
57231;SDS011;43488;46.934;8.276;2023-06-26T00:01:14;617.28;;;443.25;;
57231;SDS011;43488;46.934;8.276;2023-06-26T00:03:42;619.60;;;351.67;;
57231;SDS011;43488;46.934;8.276;2023-06-26T00:06:09;616.13;;;347.60;;
57231;SDS011;43488;46.934;8.276;2023-06-26T00:08:37;622.70;;;353.60;;
57231;SDS011;43488;46.934;8.276;2023-06-26T00:11:05;609.75;;;427.90;;
57231;SDS011;43488;46.934;8.276;2023-06-26T00:13:32;616.78;;;346.10;;
57231;SDS011;43488;46.934;8.276;2023-06-26T00:16:00;627.67;;;362.73;;
57231;SDS011;43488;46.934;8.276;2023-06-26T00:18:29;617.55;;;347.08;;
57231;SDS011;43488;46.934;8.276;2023-06-26T00:20:57;621.05;;;359.35;;
57231;SDS011;43488;46.934;8.276;2023-06-26T00:23:25;604.55;;;411.75;;
57231;SDS011;43488;46.934;8.276;2023-06-26T00:25:53;624.35;;;352.77;;
57231;SDS011;43488;46.934;8.276;2023-06-26T00:28:21;605.55;;;420.20;;
57231;SDS011;43488;46.934;8.276;2023-06-26T00:30:48;619.03;;;355.23;;
57231;SDS011;43488;46.934;8.276;2023-06-26T00:33:15;602.50;;;408.77;;
57231;SDS011;43488;46.934;8.276;2023-06-26T00:35:42;600.28;;;388.52;;
57231;SDS011;43488;46.934;8.276;2023-06-26T00:38:10;599.42;;;386.85;;
57231;SDS011;43488;46.934;8.276;2023-06-26T00:40:37;618.70;;;329.92;;
57231;SDS011;43488;46.934;8.276;2023-06-26T00:43:04;604.60;;;395.45;;
57231;SDS011;43488;46.934;8.276;2023-06-26T00:45:31;619.42;;;323.10;;
57231;SDS011;43488;46.934;8.276;2023-06-26T00:47:59;597.45;;;391.83;;
57231;SDS011;43488;46.934;8.276;2023-06-26T00:50:27;627.88;;;350.77;;
57231;SDS011;43488;46.934;8.276;2023-06-26T00:52:54;615.30;;;326.92;;
57231;SDS011;43488;46.934;8.276;2023-06-26T00:55:27;621.38;;;345.55;;
57231;SDS011;43488;46.934;8.276;2023-06-26T00:57:54;622.63;;;339.58;;
57231;SDS011;43488;46.934;8.276;2023-06-26T01:00:22;615.10;;;345.55;;
57231;SDS011;43488;46.934;8.276;2023-06-26T01:02:49;603.65;;;408.60;;
57231;SDS011;43488;46.934;8.276;2023-06-26T01:05:17;607.40;;;418.55;;
57231;SDS011;43488;46.934;8.276;2023-06-26T01:07:47;597.42;;;388.90;;
57231;SDS011;43488;46.934;8.276;2023-06-26T01:10:16;620.38;;;440.10;;
57231;SDS011;43488;46.934;8.276;2023-06-26T01:12:43;614.08;;;422.63;;
57231;SDS011;43488;46.934;8.276;2023-06-26T01:15:11;618.22;;;432.35;;
57231;SDS011;43488;46.934;8.276;2023-06-26T01:17:39;625.63;;;363.75;;
57231;SDS011;43488;46.934;8.276;2023-06-26T01:20:12;620.10;;;439.80;;
57231;SDS011;43488;46.934;8.276;2023-06-26T01:25:38;631.17;;;375.10;;
57231;SDS011;43488;46.934;8.276;2023-06-26T01:28:41;617.95;;;429.58;;
57231;SDS011;43488;46.934;8.276;2023-06-26T01:31:10;620.33;;;434.00;;
57231;SDS011;43488;46.934;8.276;2023-06-26T01:33:40;620.00;;;423.63;;
57231;SDS011;43488;46.934;8.276;2023-06-26T01:36:08;614.88;;;330.83;;
57231;SDS011;43488;46.934;8.276;2023-06-26T01:38:37;603.75;;;410.05;;
57231;SDS011;43488;46.934;8.276;2023-06-26T01:41:04;609.40;;;416.23;;
57231;SDS011;43488;46.934;8.276;2023-06-26T01:52:03;620.95;;;351.55;;
57231;SDS011;43488;46.934;8.276;2023-06-26T01:58:02;606.33;;;412.48;;
57231;SDS011;43488;46.934;8.276;2023-06-26T02:00:30;607.17;;;416.25;;
57231;SDS011;43488;46.934;8.276;2023-06-26T02:02:58;623.53;;;353.60;;
57231;SDS011;43488;46.934;8.276;2023-06-26T02:05:26;608.00;;;413.55;;
57231;SDS011;43488;46.934;8.276;2023-06-26T02:07:53;618.95;;;347.45;;
57231;SDS011;43488;46.934;8.276;2023-06-26T02:10:21;604.72;;;410.65;;
57231;SDS011;43488;46.934;8.276;2023-06-26T02:12:48;627.78;;;361.00;;
57231;SDS011;43488;46.934;8.276;2023-06-26T02:15:18;599.95;;;395.75;;
57231;SDS011;43488;46.934;8.276;2023-06-26T02:17:46;602.55;;;401.85;;
57231;SDS011;43488;46.934;8.276;2023-06-26T02:20:14;597.05;;;393.70;;
57231;SDS011;43488;46.934;8.276;2023-06-26T02:22:42;605.75;;;405.70;;
57231;SDS011;43488;46.934;8.276;2023-06-26T02:25:09;602.00;;;391.33;;
57231;SDS011;43488;46.934;8.276;2023-06-26T02:27:39;594.92;;;388.90;;
57231;SDS011;43488;46.934;8.276;2023-06-26T02:30:07;610.17;;;415.10;;
57231;SDS011;43488;46.934;8.276;2023-06-26T02:32:35;599.40;;;395.17;;
57231;SDS011;43488;46.934;8.276;2023-06-26T02:35:02;603.95;;;410.52;;
57231;SDS011;43488;46.934;8.276;2023-06-26T02:37:30;620.13;;;338.80;;
57231;SDS011;43488;46.934;8.276;2023-06-26T02:39:58;623.78;;;346.45;;
57231;SDS011;43488;46.934;8.276;2023-06-26T02:42:25;613.50;;;329.75;;
57231;SDS011;43488;46.934;8.276;2023-06-26T02:44:53;602.85;;;401.48;;
57231;SDS011;43488;46.934;8.276;2023-06-26T02:47:20;602.67;;;398.65;;
57231;SDS011;43488;46.934;8.276;2023-06-26T02:49:48;607.92;;;322.63;;
57231;SDS011;43488;46.934;8.276;2023-06-26T02:52:15;620.65;;;341.42;;
57231;SDS011;43488;46.934;8.276;2023-06-26T02:54:42;600.08;;;388.67;;
57231;SDS011;43488;46.934;8.276;2023-06-26T02:57:10;611.70;;;325.85;;
57231;SDS011;43488;46.934;8.276;2023-06-26T02:59:37;617.88;;;336.05;;
57231;SDS011;43488;46.934;8.276;2023-06-26T03:02:05;603.17;;;403.60;;
57231;SDS011;43488;46.934;8.276;2023-06-26T03:04:33;604.25;;;400.58;;
57231;SDS011;43488;46.934;8.276;2023-06-26T03:07:03;603.03;;;400.10;;
57231;SDS011;43488;46.934;8.276;2023-06-26T03:09:30;621.38;;;342.90;;
57231;SDS011;43488;46.934;8.276;2023-06-26T03:11:58;617.20;;;340.02;;
57231;SDS011;43488;46.934;8.276;2023-06-26T03:14:25;611.97;;;321.52;;
57231;SDS011;43488;46.934;8.276;2023-06-26T03:16:53;600.47;;;397.20;;
57231;SDS011;43488;46.934;8.276;2023-06-26T03:19:27;603.80;;;384.67;;
57231;SDS011;43488;46.934;8.276;2023-06-26T03:21:55;599.13;;;369.88;;
57231;SDS011;43488;46.934;8.276;2023-06-26T03:24:22;617.58;;;304.20;;
57231;SDS011;43488;46.934;8.276;2023-06-26T03:26:49;611.15;;;297.65;;
57231;SDS011;43488;46.934;8.276;2023-06-26T03:29:17;612.05;;;296.88;;
57231;SDS011;43488;46.934;8.276;2023-06-26T03:31:45;612.15;;;304.30;;
57231;SDS011;43488;46.934;8.276;2023-06-26T03:34:13;591.08;;;366.55;;
57231;SDS011;43488;46.934;8.276;2023-06-26T03:36:40;586.60;;;367.33;;
57231;SDS011;43488;46.934;8.276;2023-06-26T03:39:07;589.50;;;367.23;;
57231;SDS011;43488;46.934;8.276;2023-06-26T03:41:35;596.85;;;383.33;;
57231;SDS011;43488;46.934;8.276;2023-06-26T03:44:02;608.00;;;303.35;;
57231;SDS011;43488;46.934;8.276;2023-06-26T03:46:30;613.83;;;304.83;;
57231;SDS011;43488;46.934;8.276;2023-06-26T03:48:57;595.15;;;382.70;;
57231;SDS011;43488;46.934;8.276;2023-06-26T03:51:25;588.10;;;373.15;;
57231;SDS011;43488;46.934;8.276;2023-06-26T03:53:52;586.00;;;368.38;;
57231;SDS011;43488;46.934;8.276;2023-06-26T03:56:20;594.95;;;376.08;;
57231;SDS011;43488;46.934;8.276;2023-06-26T03:58:47;606.33;;;304.60;;
57231;SDS011;43488;46.934;8.276;2023-06-26T04:01:14;618.85;;;326.70;;
57231;SDS011;43488;46.934;8.276;2023-06-26T04:03:42;590.30;;;369.92;;
57231;SDS011;43488;46.934;8.276;2023-06-26T04:06:09;623.17;;;344.17;;
57231;SDS011;43488;46.934;8.276;2023-06-26T04:08:36;588.08;;;370.98;;
57231;SDS011;43488;46.934;8.276;2023-06-26T04:11:04;602.38;;;300.77;;
57231;SDS011;43488;46.934;8.276;2023-06-26T04:13:31;597.38;;;388.13;;
57231;SDS011;43488;46.934;8.276;2023-06-26T04:15:59;590.25;;;378.92;;
57231;SDS011;43488;46.934;8.276;2023-06-26T04:18:26;610.95;;;314.67;;
57231;SDS011;43488;46.934;8.276;2023-06-26T04:21:04;584.80;;;371.27;;
57231;SDS011;43488;46.934;8.276;2023-06-26T04:23:34;590.85;;;380.23;;
57231;SDS011;43488;46.934;8.276;2023-06-26T04:26:02;590.70;;;378.38;;
57231;SDS011;43488;46.934;8.276;2023-06-26T04:28:34;611.97;;;319.42;;
57231;SDS011;43488;46.934;8.276;2023-06-26T04:31:02;606.85;;;320.05;;
57231;SDS011;43488;46.934;8.276;2023-06-26T04:33:30;607.88;;;322.45;;
57231;SDS011;43488;46.934;8.276;2023-06-26T04:35:58;593.03;;;387.38;;
57231;SDS011;43488;46.934;8.276;2023-06-26T04:38:30;595.50;;;395.80;;
57231;SDS011;43488;46.934;8.276;2023-06-26T04:41:01;612.78;;;334.23;;
57231;SDS011;43488;46.934;8.276;2023-06-26T04:43:29;592.65;;;383.58;;
57231;SDS011;43488;46.934;8.276;2023-06-26T04:45:56;597.75;;;401.60;;
57231;SDS011;43488;46.934;8.276;2023-06-26T04:48:24;593.10;;;390.15;;
57231;SDS011;43488;46.934;8.276;2023-06-26T04:50:54;607.00;;;325.67;;
57231;SDS011;43488;46.934;8.276;2023-06-26T04:53:23;601.65;;;407.30;;
57231;SDS011;43488;46.934;8.276;2023-06-26T04:55:51;593.97;;;390.90;;
57231;SDS011;43488;46.934;8.276;2023-06-26T04:58:19;615.67;;;330.73;;
57231;SDS011;43488;46.934;8.276;2023-06-26T05:00:47;615.88;;;332.58;;
57231;SDS011;43488;46.934;8.276;2023-06-26T05:03:16;597.10;;;391.15;;
57231;SDS011;43488;46.934;8.276;2023-06-26T05:05:45;593.78;;;394.58;;
57231;SDS011;43488;46.934;8.276;2023-06-26T05:08:16;614.35;;;332.50;;
57231;SDS011;43488;46.934;8.276;2023-06-26T05:10:48;609.08;;;326.88;;
57231;SDS011;43488;46.934;8.276;2023-06-26T05:13:19;597.42;;;392.30;;
57231;SDS011;43488;46.934;8.276;2023-06-26T05:15:46;619.05;;;346.02;;
57231;SDS011;43488;46.934;8.276;2023-06-26T05:18:13;601.00;;;410.70;;
57231;SDS011;43488;46.934;8.276;2023-06-26T05:20:42;607.88;;;327.50;;
57231;SDS011;43488;46.934;8.276;2023-06-26T05:23:13;612.78;;;334.17;;
57231;SDS011;43488;46.934;8.276;2023-06-26T05:25:53;618.95;;;343.65;;
57231;SDS011;43488;46.934;8.276;2023-06-26T05:28:25;600.25;;;404.15;;
57231;SDS011;43488;46.934;8.276;2023-06-26T05:30:55;623.85;;;349.02;;
57231;SDS011;43488;46.934;8.276;2023-06-26T05:33:23;620.10;;;338.70;;
57231;SDS011;43488;46.934;8.276;2023-06-26T05:35:53;599.17;;;402.33;;
57231;SDS011;43488;46.934;8.276;2023-06-26T05:38:21;595.72;;;399.48;;
57231;SDS011;43488;46.934;8.276;2023-06-26T05:40:48;600.38;;;413.85;;
57231;SDS011;43488;46.934;8.276;2023-06-26T05:43:17;622.63;;;350.02;;
57231;SDS011;43488;46.934;8.276;2023-06-26T05:45:48;619.67;;;334.43;;
57231;SDS011;43488;46.934;8.276;2023-06-26T05:48:15;621.80;;;343.48;;
57231;SDS011;43488;46.934;8.276;2023-06-26T05:50:43;604.05;;;412.35;;
57231;SDS011;43488;46.934;8.276;2023-06-26T05:53:12;599.67;;;387.00;;
57231;SDS011;43488;46.934;8.276;2023-06-26T05:55:39;615.78;;;336.40;;
57231;SDS011;43488;46.934;8.276;2023-06-26T05:58:09;621.28;;;345.88;;
57231;SDS011;43488;46.934;8.276;2023-06-26T06:00:39;619.05;;;350.83;;
57231;SDS011;43488;46.934;8.276;2023-06-26T06:03:09;616.60;;;339.05;;
57231;SDS011;43488;46.934;8.276;2023-06-26T06:05:37;602.78;;;413.73;;
57231;SDS011;43488;46.934;8.276;2023-06-26T06:08:04;607.00;;;400.42;;
57231;SDS011;43488;46.934;8.276;2023-06-26T06:10:32;622.58;;;356.85;;
57231;SDS011;43488;46.934;8.276;2023-06-26T06:12:59;606.05;;;410.42;;
57231;SDS011;43488;46.934;8.276;2023-06-26T06:15:26;648.17;;;377.10;;
57231;SDS011;43488;46.934;8.276;2023-06-26T06:17:54;625.42;;;350.95;;
57231;SDS011;43488;46.934;8.276;2023-06-26T06:20:21;612.30;;;436.63;;
57231;SDS011;43488;46.934;8.276;2023-06-26T06:22:49;606.40;;;392.52;;
57231;SDS011;43488;46.934;8.276;2023-06-26T06:25:16;601.47;;;408.23;;
57231;SDS011;43488;46.934;8.276;2023-06-26T06:27:44;617.13;;;341.13;;
57231;SDS011;43488;46.934;8.276;2023-06-26T06:30:12;623.30;;;351.60;;
57231;SDS011;43488;46.934;8.276;2023-06-26T06:32:40;623.38;;;353.67;;
57231;SDS011;43488;46.934;8.276;2023-06-26T06:35:07;608.65;;;404.55;;
57231;SDS011;43488;46.934;8.276;2023-06-26T06:37:37;611.85;;;427.73;;
57231;SDS011;43488;46.934;8.276;2023-06-26T06:40:05;612.47;;;409.42;;
57231;SDS011;43488;46.934;8.276;2023-06-26T06:42:35;608.53;;;396.77;;
57231;SDS011;43488;46.934;8.276;2023-06-26T06:45:03;616.92;;;419.75;;
57231;SDS011;43488;46.934;8.276;2023-06-26T06:47:31;623.13;;;350.73;;
57231;SDS011;43488;46.934;8.276;2023-06-26T06:50:00;627.20;;;350.70;;
57231;SDS011;43488;46.934;8.276;2023-06-26T06:52:37;614.92;;;399.52;;
57231;SDS011;43488;46.934;8.276;2023-06-26T06:55:07;611.28;;;389.05;;
57231;SDS011;43488;46.934;8.276;2023-06-26T06:57:35;620.20;;;417.75;;
57231;SDS011;43488;46.934;8.276;2023-06-26T07:00:05;623.13;;;343.17;;
57231;SDS011;43488;46.934;8.276;2023-06-26T07:02:38;615.37;;;406.80;;
57231;SDS011;43488;46.934;8.276;2023-06-26T07:05:07;619.70;;;409.80;;
57231;SDS011;43488;46.934;8.276;2023-06-26T07:07:35;621.88;;;326.13;;
57231;SDS011;43488;46.934;8.276;2023-06-26T07:10:08;630.58;;;340.38;;
57231;SDS011;43488;46.934;8.276;2023-06-26T07:12:39;616.42;;;401.30;;
57231;SDS011;43488;46.934;8.276;2023-06-26T07:15:06;612.03;;;392.52;;
57231;SDS011;43488;46.934;8.276;2023-06-26T07:17:35;634.05;;;344.52;;
57231;SDS011;43488;46.934;8.276;2023-06-26T07:20:05;618.70;;;404.50;;
57231;SDS011;43488;46.934;8.276;2023-06-26T07:22:34;624.15;;;322.52;;
57231;SDS011;43488;46.934;8.276;2023-06-26T07:25:03;626.53;;;338.42;;
57231;SDS011;43488;46.934;8.276;2023-06-26T07:27:31;627.30;;;338.45;;
57231;SDS011;43488;46.934;8.276;2023-06-26T07:29:59;631.60;;;340.95;;
57231;SDS011;43488;46.934;8.276;2023-06-26T07:32:27;614.08;;;390.95;;
57231;SDS011;43488;46.934;8.276;2023-06-26T07:34:54;633.38;;;343.33;;
57231;SDS011;43488;46.934;8.276;2023-06-26T07:37:23;625.72;;;342.50;;
57231;SDS011;43488;46.934;8.276;2023-06-26T07:39:50;618.60;;;405.70;;
57231;SDS011;43488;46.934;8.276;2023-06-26T07:42:18;631.47;;;341.58;;
57231;SDS011;43488;46.934;8.276;2023-06-26T07:44:46;603.17;;;375.02;;
57231;SDS011;43488;46.934;8.276;2023-06-26T07:47:13;619.03;;;406.88;;
57231;SDS011;43488;46.934;8.276;2023-06-26T07:49:41;620.90;;;422.50;;
57231;SDS011;43488;46.934;8.276;2023-06-26T07:52:08;624.67;;;410.23;;
57231;SDS011;43488;46.934;8.276;2023-06-26T07:54:39;632.70;;;338.42;;
57231;SDS011;43488;46.934;8.276;2023-06-26T07:57:06;628.28;;;331.92;;
57231;SDS011;43488;46.934;8.276;2023-06-26T07:59:35;628.55;;;333.38;;
57231;SDS011;43488;46.934;8.276;2023-06-26T08:02:02;637.17;;;348.80;;
57231;SDS011;43488;46.934;8.276;2023-06-26T08:04:31;636.17;;;335.98;;
57231;SDS011;43488;46.934;8.276;2023-06-26T08:07:00;630.50;;;338.20;;
57231;SDS011;43488;46.934;8.276;2023-06-26T08:09:29;634.78;;;349.02;;
57231;SDS011;43488;46.934;8.276;2023-06-26T08:11:58;617.80;;;398.73;;
57231;SDS011;43488;46.934;8.276;2023-06-26T08:14:25;630.78;;;409.17;;
57231;SDS011;43488;46.934;8.276;2023-06-26T08:16:53;615.20;;;398.83;;
57231;SDS011;43488;46.934;8.276;2023-06-26T08:19:21;615.92;;;374.08;;
57231;SDS011;43488;46.934;8.276;2023-06-26T08:21:48;617.13;;;387.83;;
57231;SDS011;43488;46.934;8.276;2023-06-26T08:24:16;611.65;;;364.75;;
57231;SDS011;43488;46.934;8.276;2023-06-26T08:26:45;637.95;;;365.00;;
57231;SDS011;43488;46.934;8.276;2023-06-26T08:29:13;638.28;;;381.27;;
57231;SDS011;43488;46.934;8.276;2023-06-26T08:31:42;617.55;;;413.45;;
57231;SDS011;43488;46.934;8.276;2023-06-26T08:34:09;635.55;;;376.92;;
57231;SDS011;43488;46.934;8.276;2023-06-26T08:36:37;631.97;;;362.67;;
57231;SDS011;43488;46.934;8.276;2023-06-26T08:39:05;643.60;;;363.30;;
57231;SDS011;43488;46.934;8.276;2023-06-26T08:41:32;626.63;;;401.52;;
57231;SDS011;43488;46.934;8.276;2023-06-26T08:44:03;625.92;;;384.35;;
57231;SDS011;43488;46.934;8.276;2023-06-26T08:49:05;625.97;;;408.02;;
57231;SDS011;43488;46.934;8.276;2023-06-26T08:51:42;624.67;;;403.05;;
57231;SDS011;43488;46.934;8.276;2023-06-26T08:54:42;628.47;;;434.35;;
57231;SDS011;43488;46.934;8.276;2023-06-26T08:57:14;629.85;;;444.33;;
57231;SDS011;43488;46.934;8.276;2023-06-26T08:59:46;644.95;;;422.75;;
57231;SDS011;43488;46.934;8.276;2023-06-26T09:02:14;623.17;;;433.65;;
57231;SDS011;43488;46.934;8.276;2023-06-26T09:04:41;647.67;;;408.50;;
57231;SDS011;43488;46.934;8.276;2023-06-26T09:07:09;646.95;;;413.90;;
57231;SDS011;43488;46.934;8.276;2023-06-26T09:09:37;642.92;;;396.60;;
57231;SDS011;43488;46.934;8.276;2023-06-26T09:12:05;645.60;;;401.05;;
57231;SDS011;43488;46.934;8.276;2023-06-26T09:14:37;638.63;;;453.60;;
57231;SDS011;43488;46.934;8.276;2023-06-26T09:17:05;649.25;;;408.95;;
57231;SDS011;43488;46.934;8.276;2023-06-26T09:19:32;639.15;;;446.17;;
57231;SDS011;43488;46.934;8.276;2023-06-26T09:22:04;650.38;;;399.80;;
57231;SDS011;43488;46.934;8.276;2023-06-26T09:24:40;632.85;;;431.13;;
57231;SDS011;43488;46.934;8.276;2023-06-26T09:27:09;637.05;;;435.77;;
57231;SDS011;43488;46.934;8.276;2023-06-26T09:29:37;641.40;;;424.55;;
57231;SDS011;43488;46.934;8.276;2023-06-26T09:32:07;645.00;;;384.80;;
57231;SDS011;43488;46.934;8.276;2023-06-26T09:34:35;642.17;;;383.17;;
57231;SDS011;43488;46.934;8.276;2023-06-26T09:37:03;630.67;;;430.92;;
57231;SDS011;43488;46.934;8.276;2023-06-26T09:39:31;647.35;;;406.00;;
57231;SDS011;43488;46.934;8.276;2023-06-26T09:41:58;628.17;;;442.40;;
57231;SDS011;43488;46.934;8.276;2023-06-26T09:44:29;637.92;;;376.73;;
57231;SDS011;43488;46.934;8.276;2023-06-26T09:47:00;650.83;;;427.92;;
57231;SDS011;43488;46.934;8.276;2023-06-26T09:49:30;635.30;;;478.33;;
57231;SDS011;43488;46.934;8.276;2023-06-26T09:52:00;630.05;;;458.02;;
57231;SDS011;43488;46.934;8.276;2023-06-26T09:54:29;650.65;;;434.63;;
57231;SDS011;43488;46.934;8.276;2023-06-26T09:57:15;628.42;;;462.92;;
57231;SDS011;43488;46.934;8.276;2023-06-26T09:59:44;633.33;;;472.30;;
57231;SDS011;43488;46.934;8.276;2023-06-26T10:02:11;632.30;;;464.73;;
57231;SDS011;43488;46.934;8.276;2023-06-26T10:04:40;641.25;;;429.08;;
57231;SDS011;43488;46.934;8.276;2023-06-26T10:07:11;651.45;;;455.58;;
57231;SDS011;43488;46.934;8.276;2023-06-26T10:12:11;639.08;;;466.50;;
57231;SDS011;43488;46.934;8.276;2023-06-26T10:14:47;652.65;;;448.08;;
57231;SDS011;43488;46.934;8.276;2023-06-26T10:17:15;648.25;;;444.05;;
57231;SDS011;43488;46.934;8.276;2023-06-26T10:19:48;643.28;;;491.83;;
57231;SDS011;43488;46.934;8.276;2023-06-26T10:22:18;644.85;;;477.80;;
57231;SDS011;43488;46.934;8.276;2023-06-26T10:24:48;642.73;;;484.50;;
57231;SDS011;43488;46.934;8.276;2023-06-26T10:27:17;653.60;;;459.35;;
57231;SDS011;43488;46.934;8.276;2023-06-26T10:29:52;652.42;;;455.92;;
57231;SDS011;43488;46.934;8.276;2023-06-26T10:32:23;633.95;;;464.30;;
57231;SDS011;43488;46.934;8.276;2023-06-26T10:34:53;644.35;;;421.48;;
57231;SDS011;43488;46.934;8.276;2023-06-26T10:37:21;628.70;;;451.50;;
57231;SDS011;43488;46.934;8.276;2023-06-26T10:40:15;633.53;;;486.88;;
57231;SDS011;43488;46.934;8.276;2023-06-26T10:43:12;648.63;;;447.55;;
57231;SDS011;43488;46.934;8.276;2023-06-26T10:45:48;639.20;;;480.85;;
57231;SDS011;43488;46.934;8.276;2023-06-26T10:48:21;650.67;;;454.58;;
57231;SDS011;43488;46.934;8.276;2023-06-26T10:50:55;635.85;;;482.27;;
57231;SDS011;43488;46.934;8.276;2023-06-26T10:53:23;633.08;;;473.23;;
57231;SDS011;43488;46.934;8.276;2023-06-26T10:55:57;630.88;;;488.40;;
57231;SDS011;43488;46.934;8.276;2023-06-26T10:58:32;647.78;;;467.15;;
57231;SDS011;43488;46.934;8.276;2023-06-26T11:01:22;650.53;;;464.90;;
57231;SDS011;43488;46.934;8.276;2023-06-26T11:06:32;648.72;;;473.35;;
57231;SDS011;43488;46.934;8.276;2023-06-26T11:09:08;650.70;;;445.08;;
57231;SDS011;43488;46.934;8.276;2023-06-26T11:14:31;650.22;;;470.35;;
57231;SDS011;43488;46.934;8.276;2023-06-26T11:17:01;648.72;;;455.00;;
57231;SDS011;43488;46.934;8.276;2023-06-26T11:19:31;629.65;;;478.58;;
57231;SDS011;43488;46.934;8.276;2023-06-26T11:22:01;631.22;;;474.15;;
57231;SDS011;43488;46.934;8.276;2023-06-26T11:24:33;631.30;;;476.73;;
57231;SDS011;43488;46.934;8.276;2023-06-26T11:27:01;629.63;;;470.60;;
57231;SDS011;43488;46.934;8.276;2023-06-26T11:29:31;630.30;;;482.67;;
57231;SDS011;43488;46.934;8.276;2023-06-26T11:32:02;644.47;;;446.92;;
57231;SDS011;43488;46.934;8.276;2023-06-26T11:34:32;627.60;;;469.35;;
57231;SDS011;43488;46.934;8.276;2023-06-26T11:37:00;649.30;;;468.65;;
57231;SDS011;43488;46.934;8.276;2023-06-26T11:39:29;633.97;;;469.63;;
57231;SDS011;43488;46.934;8.276;2023-06-26T11:41:56;649.50;;;467.58;;
57231;SDS011;43488;46.934;8.276;2023-06-26T11:44:25;634.83;;;494.25;;
57231;SDS011;43488;46.934;8.276;2023-06-26T11:46:57;650.80;;;483.77;;
57231;SDS011;43488;46.934;8.276;2023-06-26T11:49:24;653.25;;;479.80;;
57231;SDS011;43488;46.934;8.276;2023-06-26T11:51:53;656.97;;;482.48;;
57231;SDS011;43488;46.934;8.276;2023-06-26T11:54:26;644.67;;;507.92;;
57231;SDS011;43488;46.934;8.276;2023-06-26T11:56:55;653.72;;;485.45;;
57231;SDS011;43488;46.934;8.276;2023-06-26T11:59:26;658.15;;;488.33;;
57231;SDS011;43488;46.934;8.276;2023-06-26T12:02:12;642.03;;;505.85;;
57231;SDS011;43488;46.934;8.276;2023-06-26T12:04:48;662.25;;;496.75;;
57231;SDS011;43488;46.934;8.276;2023-06-26T12:07:16;649.38;;;482.75;;
57231;SDS011;43488;46.934;8.276;2023-06-26T12:09:46;655.47;;;478.92;;
57231;SDS011;43488;46.934;8.276;2023-06-26T12:12:15;659.88;;;517.47;;
57231;SDS011;43488;46.934;8.276;2023-06-26T12:14:44;659.80;;;472.60;;
57231;SDS011;43488;46.934;8.276;2023-06-26T12:17:12;663.35;;;477.63;;
57231;SDS011;43488;46.934;8.276;2023-06-26T12:19:44;663.85;;;472.83;;
57231;SDS011;43488;46.934;8.276;2023-06-26T12:22:23;662.05;;;472.25;;
57231;SDS011;43488;46.934;8.276;2023-06-26T12:24:59;658.03;;;465.42;;
57231;SDS011;43488;46.934;8.276;2023-06-26T12:27:27;665.42;;;470.55;;
57231;SDS011;43488;46.934;8.276;2023-06-26T12:29:55;663.35;;;503.05;;
57231;SDS011;43488;46.934;8.276;2023-06-26T12:32:23;660.15;;;470.27;;
57231;SDS011;43488;46.934;8.276;2023-06-26T12:34:52;663.30;;;473.65;;
57231;SDS011;43488;46.934;8.276;2023-06-26T12:37:22;674.88;;;501.17;;
57231;SDS011;43488;46.934;8.276;2023-06-26T12:39:50;672.80;;;504.52;;
57231;SDS011;43488;46.934;8.276;2023-06-26T12:42:19;669.22;;;471.42;;
57231;SDS011;43488;46.934;8.276;2023-06-26T12:44:50;669.83;;;499.08;;
57231;SDS011;43488;46.934;8.276;2023-06-26T12:47:23;668.42;;;472.35;;
57231;SDS011;43488;46.934;8.276;2023-06-26T12:49:53;670.78;;;505.60;;
57231;SDS011;43488;46.934;8.276;2023-06-26T12:52:22;653.20;;;511.35;;
57231;SDS011;43488;46.934;8.276;2023-06-26T12:54:53;643.65;;;489.38;;
57231;SDS011;43488;46.934;8.276;2023-06-26T12:57:22;663.35;;;445.80;;
57231;SDS011;43488;46.934;8.276;2023-06-26T12:59:50;665.60;;;463.10;;
57231;SDS011;43488;46.934;8.276;2023-06-26T13:02:17;665.00;;;462.27;;
57231;SDS011;43488;46.934;8.276;2023-06-26T13:04:45;644.65;;;474.23;;
57231;SDS011;43488;46.934;8.276;2023-06-26T13:07:13;641.63;;;477.05;;
57231;SDS011;43488;46.934;8.276;2023-06-26T13:09:41;644.15;;;490.52;;
57231;SDS011;43488;46.934;8.276;2023-06-26T13:12:09;642.63;;;477.63;;
57231;SDS011;43488;46.934;8.276;2023-06-26T13:14:37;643.47;;;481.33;;
57231;SDS011;43488;46.934;8.276;2023-06-26T13:17:04;660.45;;;468.08;;
57231;SDS011;43488;46.934;8.276;2023-06-26T13:19:32;663.17;;;479.25;;
57231;SDS011;43488;46.934;8.276;2023-06-26T13:21:59;643.28;;;484.05;;
57231;SDS011;43488;46.934;8.276;2023-06-26T13:24:26;655.80;;;435.90;;
57231;SDS011;43488;46.934;8.276;2023-06-26T13:26:53;654.83;;;433.70;;
57231;SDS011;43488;46.934;8.276;2023-06-26T13:29:23;646.47;;;475.52;;
57231;SDS011;43488;46.934;8.276;2023-06-26T13:31:50;642.88;;;457.63;;
57231;SDS011;43488;46.934;8.276;2023-06-26T13:34:24;656.60;;;443.48;;
57231;SDS011;43488;46.934;8.276;2023-06-26T13:36:53;640.45;;;479.25;;
57231;SDS011;43488;46.934;8.276;2023-06-26T13:39:21;641.70;;;482.92;;
57231;SDS011;43488;46.934;8.276;2023-06-26T13:41:48;653.15;;;461.70;;
57231;SDS011;43488;46.934;8.276;2023-06-26T13:44:17;657.25;;;485.75;;
57231;SDS011;43488;46.934;8.276;2023-06-26T13:46:44;666.67;;;485.17;;
57231;SDS011;43488;46.934;8.276;2023-06-26T13:49:12;666.17;;;457.00;;
57231;SDS011;43488;46.934;8.276;2023-06-26T13:51:40;669.17;;;447.33;;
57231;SDS011;43488;46.934;8.276;2023-06-26T13:54:12;677.20;;;456.48;;
57231;SDS011;43488;46.934;8.276;2023-06-26T13:56:40;682.75;;;486.90;;
57231;SDS011;43488;46.934;8.276;2023-06-26T13:59:09;688.00;;;481.77;;
57231;SDS011;43488;46.934;8.276;2023-06-26T14:01:39;676.05;;;439.73;;
57231;SDS011;43488;46.934;8.276;2023-06-26T14:04:09;694.22;;;489.25;;
57231;SDS011;43488;46.934;8.276;2023-06-26T14:06:37;684.10;;;454.77;;
57231;SDS011;43488;46.934;8.276;2023-06-26T14:09:04;680.10;;;456.38;;
57231;SDS011;43488;46.934;8.276;2023-06-26T14:11:31;684.13;;;465.52;;
57231;SDS011;43488;46.934;8.276;2023-06-26T14:13:59;694.05;;;495.50;;
57231;SDS011;43488;46.934;8.276;2023-06-26T14:16:26;682.10;;;455.92;;
57231;SDS011;43488;46.934;8.276;2023-06-26T14:18:55;685.90;;;473.50;;
57231;SDS011;43488;46.934;8.276;2023-06-26T14:21:22;683.47;;;463.55;;
57231;SDS011;43488;46.934;8.276;2023-06-26T14:23:50;690.85;;;493.13;;
57231;SDS011;43488;46.934;8.276;2023-06-26T14:26:17;691.63;;;488.48;;
57231;SDS011;43488;46.934;8.276;2023-06-26T14:28:45;694.15;;;497.42;;
57231;SDS011;43488;46.934;8.276;2023-06-26T14:31:13;691.35;;;486.40;;
57231;SDS011;43488;46.934;8.276;2023-06-26T14:33:40;684.83;;;460.83;;